sensor_id;sensor_type;location;lat;lon;timestamp;pressure;altitude;pressure_sealevel;temperature;humidity
33781;BME280;20097;50.832;19.100;2023-05-20T00:04:55;99284.19;;;11.45;100.00
33781;BME280;20097;50.832;19.100;2023-05-20T00:09:59;99276.66;;;11.42;100.00
33781;BME280;20097;50.832;19.100;2023-05-20T00:15:06;99270.13;;;11.38;100.00
33781;BME280;20097;50.832;19.100;2023-05-20T00:20:11;99271.91;;;11.38;100.00
33781;BME280;20097;50.832;19.100;2023-05-20T00:25:15;99263.91;;;11.39;100.00
33781;BME280;20097;50.832;19.100;2023-05-20T00:30:21;99253.91;;;11.35;100.00
33781;BME280;20097;50.832;19.100;2023-05-20T00:35:25;99252.63;;;11.39;100.00
33781;BME280;20097;50.832;19.100;2023-05-20T00:40:30;99249.00;;;11.32;100.00
33781;BME280;20097;50.832;19.100;2023-05-20T00:45:35;99250.13;;;11.29;100.00
33781;BME280;20097;50.832;19.100;2023-05-20T00:50:40;99249.00;;;11.32;100.00
33781;BME280;20097;50.832;19.100;2023-05-20T00:55:44;99244.25;;;11.35;100.00
33781;BME280;20097;50.832;19.100;2023-05-20T01:00:50;99247.81;;;11.26;100.00
33781;BME280;20097;50.832;19.100;2023-05-20T01:05:54;99247.03;;;11.34;100.00
33781;BME280;20097;50.832;19.100;2023-05-20T01:11:03;99246.44;;;11.40;100.00
33781;BME280;20097;50.832;19.100;2023-05-20T01:16:10;99237.41;;;11.34;100.00
33781;BME280;20097;50.832;19.100;2023-05-20T01:21:16;99240.84;;;11.35;100.00
33781;BME280;20097;50.832;19.100;2023-05-20T01:26:24;99238.06;;;11.36;100.00
33781;BME280;20097;50.832;19.100;2023-05-20T01:31:31;99237.91;;;11.38;100.00
33781;BME280;20097;50.832;19.100;2023-05-20T01:36:39;99236.41;;;11.35;100.00
33781;BME280;20097;50.832;19.100;2023-05-20T01:41:44;99227.94;;;11.33;100.00
33781;BME280;20097;50.832;19.100;2023-05-20T01:46:49;99233.69;;;11.37;100.00
33781;BME280;20097;50.832;19.100;2023-05-20T01:51:53;99226.63;;;11.37;100.00
33781;BME280;20097;50.832;19.100;2023-05-20T01:56:59;99216.53;;;11.42;100.00
33781;BME280;20097;50.832;19.100;2023-05-20T02:02:04;99215.69;;;11.42;100.00
33781;BME280;20097;50.832;19.100;2023-05-20T02:07:10;99218.03;;;11.45;100.00
33781;BME280;20097;50.832;19.100;2023-05-20T02:12:15;99222.44;;;11.44;100.00
33781;BME280;20097;50.832;19.100;2023-05-20T02:17:19;99227.03;;;11.50;100.00
33781;BME280;20097;50.832;19.100;2023-05-20T02:22:23;99228.38;;;11.54;100.00
33781;BME280;20097;50.832;19.100;2023-05-20T02:27:29;99231.78;;;11.55;100.00
33781;BME280;20097;50.832;19.100;2023-05-20T02:32:34;99229.31;;;11.53;100.00
33781;BME280;20097;50.832;19.100;2023-05-20T02:37:39;99231.94;;;11.53;100.00
33781;BME280;20097;50.832;19.100;2023-05-20T02:42:46;99223.28;;;11.53;100.00
33781;BME280;20097;50.832;19.100;2023-05-20T02:47:50;99230.97;;;11.54;100.00
33781;BME280;20097;50.832;19.100;2023-05-20T02:52:55;99231.13;;;11.53;100.00
33781;BME280;20097;50.832;19.100;2023-05-20T02:58:01;99237.84;;;11.55;100.00
33781;BME280;20097;50.832;19.100;2023-05-20T03:03:08;99240.41;;;11.47;100.00
33781;BME280;20097;50.832;19.100;2023-05-20T03:08:13;99229.78;;;11.49;100.00
33781;BME280;20097;50.832;19.100;2023-05-20T03:13:18;99230.66;;;11.57;100.00
33781;BME280;20097;50.832;19.100;2023-05-20T03:18:23;99239.66;;;11.63;100.00
33781;BME280;20097;50.832;19.100;2023-05-20T03:23:27;99237.03;;;11.63;100.00
33781;BME280;20097;50.832;19.100;2023-05-20T03:28:32;99233.63;;;11.62;100.00
33781;BME280;20097;50.832;19.100;2023-05-20T03:33:37;99231.16;;;11.61;100.00
33781;BME280;20097;50.832;19.100;2023-05-20T03:38:42;99241.19;;;11.65;100.00
33781;BME280;20097;50.832;19.100;2023-05-20T03:43:48;99246.91;;;11.69;100.00
33781;BME280;20097;50.832;19.100;2023-05-20T03:48:52;99244.47;;;11.67;100.00
33781;BME280;20097;50.832;19.100;2023-05-20T03:53:56;99246.91;;;11.69;100.00
33781;BME280;20097;50.832;19.100;2023-05-20T03:59:02;99246.44;;;11.73;100.00
33781;BME280;20097;50.832;19.100;2023-05-20T04:04:07;99258.72;;;11.81;100.00
33781;BME280;20097;50.832;19.100;2023-05-20T04:09:11;99264.63;;;11.83;100.00
33781;BME280;20097;50.832;19.100;2023-05-20T04:14:18;99262.84;;;11.83;100.00
33781;BME280;20097;50.832;19.100;2023-05-20T04:19:22;99263.50;;;11.85;100.00
33781;BME280;20097;50.832;19.100;2023-05-20T04:24:30;99258.63;;;11.90;100.00
33781;BME280;20097;50.832;19.100;2023-05-20T04:29:36;99263.22;;;11.96;100.00
33781;BME280;20097;50.832;19.100;2023-05-20T04:34:41;99263.56;;;12.01;100.00
33781;BME280;20097;50.832;19.100;2023-05-20T04:39:48;99274.84;;;12.10;100.00
33781;BME280;20097;50.832;19.100;2023-05-20T04:44:54;99280.91;;;12.10;100.00
33781;BME280;20097;50.832;19.100;2023-05-20T04:49:58;99278.63;;;12.07;100.00
33781;BME280;20097;50.832;19.100;2023-05-20T04:55:03;99267.97;;;12.09;100.00
33781;BME280;20097;50.832;19.100;2023-05-20T05:00:10;99262.91;;;12.07;100.00
33781;BME280;20097;50.832;19.100;2023-05-20T05:05:15;99266.38;;;12.16;100.00
33781;BME280;20097;50.832;19.100;2023-05-20T05:10:19;99265.41;;;12.25;100.00
33781;BME280;20097;50.832;19.100;2023-05-20T05:15:26;99262.97;;;12.31;100.00
33781;BME280;20097;50.832;19.100;2023-05-20T05:20:31;99270.84;;;12.39;100.00
33781;BME280;20097;50.832;19.100;2023-05-20T05:25:35;99262.66;;;12.42;100.00
33781;BME280;20097;50.832;19.100;2023-05-20T05:30:40;99269.53;;;12.43;100.00
33781;BME280;20097;50.832;19.100;2023-05-20T05:35:45;99273.78;;;12.53;100.00
33781;BME280;20097;50.832;19.100;2023-05-20T05:40:50;99271.19;;;12.61;100.00
33781;BME280;20097;50.832;19.100;2023-05-20T05:45:55;99272.34;;;12.66;100.00
33781;BME280;20097;50.832;19.100;2023-05-20T05:51:00;99274.31;;;12.80;100.00
33781;BME280;20097;50.832;19.100;2023-05-20T05:56:05;99271.03;;;12.94;100.00
33781;BME280;20097;50.832;19.100;2023-05-20T06:01:11;99267.13;;;13.06;100.00
33781;BME280;20097;50.832;19.100;2023-05-20T06:06:15;99270.56;;;13.15;100.00
33781;BME280;20097;50.832;19.100;2023-05-20T06:11:20;99265.66;;;13.12;100.00
33781;BME280;20097;50.832;19.100;2023-05-20T06:16:27;99263.53;;;13.07;100.00
33781;BME280;20097;50.832;19.100;2023-05-20T06:21:33;99274.97;;;13.22;100.00
33781;BME280;20097;50.832;19.100;2023-05-20T06:26:38;99269.38;;;13.33;100.00
33781;BME280;20097;50.832;19.100;2023-05-20T06:31:44;99267.22;;;13.45;100.00
33781;BME280;20097;50.832;19.100;2023-05-20T06:36:49;99266.16;;;13.70;100.00
33781;BME280;20097;50.832;19.100;2023-05-20T06:41:53;99266.22;;;13.93;100.00
33781;BME280;20097;50.832;19.100;2023-05-20T06:47:06;99266.34;;;13.60;100.00
33781;BME280;20097;50.832;19.100;2023-05-20T06:52:11;99264.81;;;13.82;100.00
33781;BME280;20097;50.832;19.100;2023-05-20T06:57:16;99267.16;;;14.08;100.00
33781;BME280;20097;50.832;19.100;2023-05-20T07:02:21;99271.34;;;14.17;100.00
33781;BME280;20097;50.832;19.100;2023-05-20T07:07:26;99261.13;;;14.30;100.00
33781;BME280;20097;50.832;19.100;2023-05-20T07:12:31;99258.16;;;14.33;100.00
33781;BME280;20097;50.832;19.100;2023-05-20T07:17:40;99246.78;;;14.40;100.00
33781;BME280;20097;50.832;19.100;2023-05-20T07:22:44;99260.69;;;14.49;100.00
33781;BME280;20097;50.832;19.100;2023-05-20T07:27:56;99261.09;;;14.60;100.00
33781;BME280;20097;50.832;19.100;2023-05-20T07:33:03;99251.38;;;14.83;100.00
33781;BME280;20097;50.832;19.100;2023-05-20T07:38:08;99261.44;;;14.57;100.00
33781;BME280;20097;50.832;19.100;2023-05-20T07:43:13;99251.41;;;14.61;100.00
33781;BME280;20097;50.832;19.100;2023-05-20T07:48:19;99252.59;;;14.58;100.00
33781;BME280;20097;50.832;19.100;2023-05-20T07:53:23;99248.38;;;14.86;100.00
33781;BME280;20097;50.832;19.100;2023-05-20T07:58:30;99245.22;;;15.28;100.00
33781;BME280;20097;50.832;19.100;2023-05-20T08:03:35;99232.53;;;15.75;100.00
33781;BME280;20097;50.832;19.100;2023-05-20T08:08:45;99232.53;;;15.75;100.00
33781;BME280;20097;50.832;19.100;2023-05-20T08:13:55;99222.66;;;15.77;100.00
33781;BME280;20097;50.832;19.100;2023-05-20T08:19:03;99223.69;;;15.97;100.00
33781;BME280;20097;50.832;19.100;2023-05-20T08:24:07;99225.19;;;15.71;100.00
33781;BME280;20097;50.832;19.100;2023-05-20T08:29:12;99222.66;;;16.13;100.00
33781;BME280;20097;50.832;19.100;2023-05-20T08:34:17;99221.44;;;16.51;100.00
33781;BME280;20097;50.832;19.100;2023-05-20T08:39:21;99221.69;;;16.56;100.00
33781;BME280;20097;50.832;19.100;2023-05-20T08:44:26;99222.41;;;16.65;100.00
33781;BME280;20097;50.832;19.100;2023-05-20T08:49:32;99224.94;;;16.79;100.00
33781;BME280;20097;50.832;19.100;2023-05-20T08:54:41;99217.31;;;16.63;100.00
33781;BME280;20097;50.832;19.100;2023-05-20T08:59:46;99217.69;;;16.81;100.00
33781;BME280;20097;50.832;19.100;2023-05-20T09:04:51;99220.56;;;16.86;100.00
33781;BME280;20097;50.832;19.100;2023-05-20T09:09:56;99221.06;;;16.75;100.00
33781;BME280;20097;50.832;19.100;2023-05-20T09:15:00;99223.03;;;16.67;100.00
33781;BME280;20097;50.832;19.100;2023-05-20T09:20:10;99230.47;;;16.84;100.00
33781;BME280;20097;50.832;19.100;2023-05-20T09:25:17;99219.53;;;16.87;100.00
33781;BME280;20097;50.832;19.100;2023-05-20T09:30:24;99219.16;;;16.90;100.00
33781;BME280;20097;50.832;19.100;2023-05-20T09:35:34;99220.97;;;17.17;100.00
33781;BME280;20097;50.832;19.100;2023-05-20T09:40:40;99225.16;;;17.33;100.00
33781;BME280;20097;50.832;19.100;2023-05-20T09:45:45;99219.75;;;17.82;100.00
33781;BME280;20097;50.832;19.100;2023-05-20T09:50:51;99215.97;;;17.63;100.00
33781;BME280;20097;50.832;19.100;2023-05-20T09:55:56;99215.78;;;18.12;100.00
33781;BME280;20097;50.832;19.100;2023-05-20T10:01:01;99206.34;;;17.83;100.00
33781;BME280;20097;50.832;19.100;2023-05-20T10:06:20;99201.59;;;18.26;100.00
33781;BME280;20097;50.832;19.100;2023-05-20T10:11:34;99203.69;;;18.50;100.00
33781;BME280;20097;50.832;19.100;2023-05-20T10:16:43;99208.38;;;18.54;100.00
33781;BME280;20097;50.832;19.100;2023-05-20T10:21:57;99206.56;;;18.68;100.00
33781;BME280;20097;50.832;19.100;2023-05-20T10:27:03;99204.13;;;18.86;100.00
33781;BME280;20097;50.832;19.100;2023-05-20T10:32:08;99203.50;;;18.97;100.00
33781;BME280;20097;50.832;19.100;2023-05-20T10:37:24;99200.81;;;19.23;100.00
33781;BME280;20097;50.832;19.100;2023-05-20T10:42:30;99198.56;;;19.27;100.00
33781;BME280;20097;50.832;19.100;2023-05-20T10:47:34;99184.56;;;19.83;100.00
33781;BME280;20097;50.832;19.100;2023-05-20T10:52:40;99183.72;;;19.89;100.00
33781;BME280;20097;50.832;19.100;2023-05-20T10:57:44;99169.53;;;20.46;100.00
33781;BME280;20097;50.832;19.100;2023-05-20T11:02:49;99165.34;;;20.32;97.35
33781;BME280;20097;50.832;19.100;2023-05-20T11:08:01;99162.72;;;21.06;93.36
33781;BME280;20097;50.832;19.100;2023-05-20T11:13:12;99147.16;;;21.45;90.57
33781;BME280;20097;50.832;19.100;2023-05-20T11:18:17;99153.44;;;21.33;91.96
33781;BME280;20097;50.832;19.100;2023-05-20T11:23:22;99138.63;;;20.83;97.93
33781;BME280;20097;50.832;19.100;2023-05-20T11:28:26;99141.50;;;20.57;100.00
33781;BME280;20097;50.832;19.100;2023-05-20T11:33:30;99127.28;;;20.94;93.17
33781;BME280;20097;50.832;19.100;2023-05-20T11:38:36;99131.28;;;21.21;88.53
33781;BME280;20097;50.832;19.100;2023-05-20T11:43:40;99126.28;;;21.13;93.32
33781;BME280;20097;50.832;19.100;2023-05-20T11:48:50;99110.34;;;21.13;91.16
33781;BME280;20097;50.832;19.100;2023-05-20T11:53:59;99103.38;;;20.94;92.84
33781;BME280;20097;50.832;19.100;2023-05-20T11:59:05;99114.69;;;22.21;93.01
33781;BME280;20097;50.832;19.100;2023-05-20T12:04:09;99100.97;;;21.94;89.97
33781;BME280;20097;50.832;19.100;2023-05-20T12:09:15;99102.53;;;22.13;88.29
33781;BME280;20097;50.832;19.100;2023-05-20T12:14:19;99093.09;;;22.52;87.87
33781;BME280;20097;50.832;19.100;2023-05-20T12:19:23;99091.59;;;21.92;88.09
33781;BME280;20097;50.832;19.100;2023-05-20T12:24:29;99090.13;;;22.83;84.55
33781;BME280;20097;50.832;19.100;2023-05-20T12:29:33;99087.63;;;23.16;82.87
33781;BME280;20097;50.832;19.100;2023-05-20T12:34:37;99087.47;;;22.94;85.03
33781;BME280;20097;50.832;19.100;2023-05-20T12:39:42;99083.38;;;23.27;81.36
33781;BME280;20097;50.832;19.100;2023-05-20T12:44:47;99069.56;;;23.30;79.14
33781;BME280;20097;50.832;19.100;2023-05-20T12:49:51;99067.13;;;23.40;78.54
33781;BME280;20097;50.832;19.100;2023-05-20T12:54:56;99062.94;;;24.16;79.12
33781;BME280;20097;50.832;19.100;2023-05-20T13:00:00;99064.16;;;24.42;76.27
33781;BME280;20097;50.832;19.100;2023-05-20T13:05:07;99050.13;;;24.85;72.62
33781;BME280;20097;50.832;19.100;2023-05-20T13:10:13;99050.47;;;24.72;69.03
33781;BME280;20097;50.832;19.100;2023-05-20T13:15:18;99038.47;;;24.58;70.84
33781;BME280;20097;50.832;19.100;2023-05-20T13:20:22;99043.00;;;25.33;67.68
33781;BME280;20097;50.832;19.100;2023-05-20T13:25:28;99037.53;;;25.72;71.37
33781;BME280;20097;50.832;19.100;2023-05-20T13:30:33;99036.53;;;25.78;65.22
33781;BME280;20097;50.832;19.100;2023-05-20T13:35:38;99033.50;;;25.69;64.66
33781;BME280;20097;50.832;19.100;2023-05-20T13:40:44;99025.94;;;26.61;64.72
33781;BME280;20097;50.832;19.100;2023-05-20T13:45:48;99020.56;;;25.88;62.89
33781;BME280;20097;50.832;19.100;2023-05-20T13:50:52;99021.94;;;25.90;63.00
33781;BME280;20097;50.832;19.100;2023-05-20T13:55:57;99031.84;;;25.63;62.95
33781;BME280;20097;50.832;19.100;2023-05-20T14:01:01;99014.88;;;26.89;64.23
33781;BME280;20097;50.832;19.100;2023-05-20T14:06:06;99011.00;;;26.28;63.35
33781;BME280;20097;50.832;19.100;2023-05-20T14:11:11;99003.34;;;26.42;63.01
33781;BME280;20097;50.832;19.100;2023-05-20T14:16:16;99002.88;;;26.91;59.19
33781;BME280;20097;50.832;19.100;2023-05-20T14:21:21;99003.28;;;26.32;58.87
33781;BME280;20097;50.832;19.100;2023-05-20T14:26:26;98990.47;;;26.80;58.71
33781;BME280;20097;50.832;19.100;2023-05-20T14:31:30;98985.25;;;26.17;59.79
33781;BME280;20097;50.832;19.100;2023-05-20T14:36:34;98981.28;;;27.28;60.69
33781;BME280;20097;50.832;19.100;2023-05-20T14:41:39;98981.19;;;26.98;59.33
33781;BME280;20097;50.832;19.100;2023-05-20T14:46:44;98978.81;;;26.60;57.64
33781;BME280;20097;50.832;19.100;2023-05-20T14:51:48;98973.19;;;27.23;57.99
33781;BME280;20097;50.832;19.100;2023-05-20T14:56:54;98974.56;;;27.21;54.70
33781;BME280;20097;50.832;19.100;2023-05-20T15:01:58;98975.63;;;27.25;53.34
33781;BME280;20097;50.832;19.100;2023-05-20T15:07:02;98973.66;;;27.00;50.98
33781;BME280;20097;50.832;19.100;2023-05-20T15:12:08;98966.69;;;26.99;49.55
33781;BME280;20097;50.832;19.100;2023-05-20T15:17:12;98965.78;;;27.35;50.16
33781;BME280;20097;50.832;19.100;2023-05-20T15:22:17;98959.63;;;27.45;50.81
33781;BME280;20097;50.832;19.100;2023-05-20T15:27:22;98954.00;;;27.51;50.95
33781;BME280;20097;50.832;19.100;2023-05-20T15:32:26;98952.38;;;27.60;49.84
33781;BME280;20097;50.832;19.100;2023-05-20T15:37:30;98938.06;;;27.15;51.61
33781;BME280;20097;50.832;19.100;2023-05-20T15:42:36;98936.03;;;26.65;51.81
33781;BME280;20097;50.832;19.100;2023-05-20T15:47:40;98927.00;;;25.34;56.05
33781;BME280;20097;50.832;19.100;2023-05-20T15:52:45;98903.59;;;24.12;61.55
33781;BME280;20097;50.832;19.100;2023-05-20T15:57:50;98907.75;;;24.03;64.13
33781;BME280;20097;50.832;19.100;2023-05-20T16:02:55;98909.97;;;23.78;63.66
33781;BME280;20097;50.832;19.100;2023-05-20T16:08:18;98908.13;;;23.29;67.09
33781;BME280;20097;50.832;19.100;2023-05-20T16:13:27;98909.16;;;22.99;72.36
33781;BME280;20097;50.832;19.100;2023-05-20T16:18:30;98907.59;;;22.75;74.03
33781;BME280;20097;50.832;19.100;2023-05-20T16:23:34;98910.16;;;22.70;73.01
33781;BME280;20097;50.832;19.100;2023-05-20T16:28:40;98905.44;;;22.49;72.87
33781;BME280;20097;50.832;19.100;2023-05-20T16:33:45;98899.13;;;22.39;75.47
33781;BME280;20097;50.832;19.100;2023-05-20T16:38:49;98896.38;;;22.11;76.79
33781;BME280;20097;50.832;19.100;2023-05-20T16:43:55;98900.78;;;21.94;80.08
33781;BME280;20097;50.832;19.100;2023-05-20T16:48:59;98901.56;;;21.71;80.50
33781;BME280;20097;50.832;19.100;2023-05-20T16:54:03;98898.31;;;21.69;81.84
33781;BME280;20097;50.832;19.100;2023-05-20T16:59:08;98911.69;;;21.51;84.52
33781;BME280;20097;50.832;19.100;2023-05-20T17:04:16;98908.19;;;21.39;88.73
33781;BME280;20097;50.832;19.100;2023-05-20T17:09:20;98912.66;;;21.27;89.56
33781;BME280;20097;50.832;19.100;2023-05-20T17:14:26;98907.69;;;21.19;91.93
33781;BME280;20097;50.832;19.100;2023-05-20T17:19:30;98914.78;;;21.07;94.06
33781;BME280;20097;50.832;19.100;2023-05-20T17:24:35;98910.06;;;21.09;96.77
33781;BME280;20097;50.832;19.100;2023-05-20T17:29:40;98916.63;;;20.88;99.31
33781;BME280;20097;50.832;19.100;2023-05-20T17:34:44;98916.06;;;20.86;100.00
33781;BME280;20097;50.832;19.100;2023-05-20T17:39:48;98908.50;;;20.72;100.00
33781;BME280;20097;50.832;19.100;2023-05-20T17:44:54;98902.16;;;20.55;100.00
33781;BME280;20097;50.832;19.100;2023-05-20T17:49:58;98900.25;;;20.43;100.00
33781;BME280;20097;50.832;19.100;2023-05-20T17:55:05;98897.06;;;20.17;100.00
33781;BME280;20097;50.832;19.100;2023-05-20T18:00:11;98892.84;;;20.09;100.00
33781;BME280;20097;50.832;19.100;2023-05-20T18:05:25;98892.50;;;19.81;100.00
33781;BME280;20097;50.832;19.100;2023-05-20T18:10:30;98889.66;;;19.58;100.00
33781;BME280;20097;50.832;19.100;2023-05-20T18:15:36;98892.22;;;19.40;100.00
33781;BME280;20097;50.832;19.100;2023-05-20T18:20:42;98897.06;;;19.19;100.00
33781;BME280;20097;50.832;19.100;2023-05-20T18:25:46;98893.94;;;18.97;100.00
33781;BME280;20097;50.832;19.100;2023-05-20T18:30:50;98895.66;;;18.72;100.00
33781;BME280;20097;50.832;19.100;2023-05-20T18:35:55;98894.53;;;18.55;100.00
33781;BME280;20097;50.832;19.100;2023-05-20T18:40:59;98906.00;;;18.29;100.00
33781;BME280;20097;50.832;19.100;2023-05-20T18:46:04;98917.16;;;18.18;100.00
33781;BME280;20097;50.832;19.100;2023-05-20T18:51:09;98914.19;;;18.02;100.00
33781;BME280;20097;50.832;19.100;2023-05-20T18:56:13;98914.56;;;18.05;100.00
33781;BME280;20097;50.832;19.100;2023-05-20T19:01:17;98928.78;;;18.04;100.00
33781;BME280;20097;50.832;19.100;2023-05-20T19:06:24;98927.59;;;18.07;100.00
33781;BME280;20097;50.832;19.100;2023-05-20T19:11:28;98918.66;;;18.01;100.00
33781;BME280;20097;50.832;19.100;2023-05-20T19:16:34;98924.75;;;17.89;100.00
33781;BME280;20097;50.832;19.100;2023-05-20T19:21:39;98919.28;;;17.77;100.00
33781;BME280;20097;50.832;19.100;2023-05-20T19:26:45;98914.78;;;17.71;100.00
33781;BME280;20097;50.832;19.100;2023-05-20T19:31:49;98915.19;;;17.55;100.00
33781;BME280;20097;50.832;19.100;2023-05-20T19:36:55;98914.56;;;17.40;100.00
33781;BME280;20097;50.832;19.100;2023-05-20T19:41:59;98913.34;;;17.29;100.00
33781;BME280;20097;50.832;19.100;2023-05-20T19:47:03;98918.78;;;17.15;100.00
33781;BME280;20097;50.832;19.100;2023-05-20T19:52:11;98927.72;;;17.07;100.00
33781;BME280;20097;50.832;19.100;2023-05-20T19:57:15;98938.44;;;16.99;100.00
33781;BME280;20097;50.832;19.100;2023-05-20T20:02:18;98931.28;;;16.87;100.00
33781;BME280;20097;50.832;19.100;2023-05-20T20:07:24;98933.88;;;16.74;100.00
33781;BME280;20097;50.832;19.100;2023-05-20T20:12:29;98933.25;;;16.65;100.00
33781;BME280;20097;50.832;19.100;2023-05-20T20:17:33;98931.53;;;16.51;100.00
33781;BME280;20097;50.832;19.100;2023-05-20T20:22:40;98923.16;;;16.41;100.00
33781;BME280;20097;50.832;19.100;2023-05-20T20:27:45;98923.47;;;16.25;100.00
33781;BME280;20097;50.832;19.100;2023-05-20T20:32:50;98931.47;;;16.10;100.00
33781;BME280;20097;50.832;19.100;2023-05-20T20:37:56;98921.50;;;15.99;100.00
33781;BME280;20097;50.832;19.100;2023-05-20T20:43:01;98925.38;;;15.76;100.00
33781;BME280;20097;50.832;19.100;2023-05-20T20:48:06;98927.97;;;15.69;100.00
33781;BME280;20097;50.832;19.100;2023-05-20T20:53:12;98927.72;;;15.64;100.00
33781;BME280;20097;50.832;19.100;2023-05-20T20:58:17;98930.09;;;15.59;100.00
33781;BME280;20097;50.832;19.100;2023-05-20T21:03:21;98930.19;;;15.45;100.00
33781;BME280;20097;50.832;19.100;2023-05-20T21:08:29;98926.00;;;15.36;100.00
33781;BME280;20097;50.832;19.100;2023-05-20T21:13:33;98921.94;;;15.33;100.00
33781;BME280;20097;50.832;19.100;2023-05-20T21:18:40;98915.78;;;15.26;100.00
33781;BME280;20097;50.832;19.100;2023-05-20T21:23:46;98921.00;;;15.20;100.00
33781;BME280;20097;50.832;19.100;2023-05-20T21:28:50;98925.75;;;15.09;100.00
33781;BME280;20097;50.832;19.100;2023-05-20T21:33:54;98927.56;;;15.09;100.00
33781;BME280;20097;50.832;19.100;2023-05-20T21:39:00;98935.00;;;15.05;100.00
33781;BME280;20097;50.832;19.100;2023-05-20T21:44:04;98925.84;;;15.01;100.00
33781;BME280;20097;50.832;19.100;2023-05-20T21:49:08;98923.16;;;14.95;100.00
33781;BME280;20097;50.832;19.100;2023-05-20T21:54:13;98921.03;;;14.84;100.00
33781;BME280;20097;50.832;19.100;2023-05-20T21:59:17;98923.19;;;14.80;100.00
33781;BME280;20097;50.832;19.100;2023-05-20T22:04:21;98924.78;;;14.75;100.00
33781;BME280;20097;50.832;19.100;2023-05-20T22:09:27;98928.31;;;14.67;100.00
33781;BME280;20097;50.832;19.100;2023-05-20T22:14:32;98933.03;;;14.57;100.00
33781;BME280;20097;50.832;19.100;2023-05-20T22:19:36;98924.63;;;14.47;100.00
33781;BME280;20097;50.832;19.100;2023-05-20T22:24:43;98914.19;;;14.39;100.00
33781;BME280;20097;50.832;19.100;2023-05-20T22:29:48;98909.88;;;14.32;100.00
33781;BME280;20097;50.832;19.100;2023-05-20T22:34:52;98917.47;;;14.27;100.00
33781;BME280;20097;50.832;19.100;2023-05-20T22:40:02;98912.84;;;14.14;100.00
33781;BME280;20097;50.832;19.100;2023-05-20T22:45:08;98904.41;;;14.04;100.00
33781;BME280;20097;50.832;19.100;2023-05-20T22:50:12;98906.75;;;13.99;100.00
33781;BME280;20097;50.832;19.100;2023-05-20T22:55:17;98911.63;;;14.02;100.00
33781;BME280;20097;50.832;19.100;2023-05-20T23:00:21;98901.22;;;13.94;100.00
33781;BME280;20097;50.832;19.100;2023-05-20T23:05:25;98901.03;;;13.81;100.00
33781;BME280;20097;50.832;19.100;2023-05-20T23:10:32;98900.03;;;13.67;100.00
33781;BME280;20097;50.832;19.100;2023-05-20T23:15:37;98895.28;;;13.63;100.00
33781;BME280;20097;50.832;19.100;2023-05-20T23:20:43;98898.75;;;13.63;100.00
33781;BME280;20097;50.832;19.100;2023-05-20T23:25:48;98893.84;;;13.60;100.00
33781;BME280;20097;50.832;19.100;2023-05-20T23:30:54;98894.31;;;13.64;100.00
33781;BME280;20097;50.832;19.100;2023-05-20T23:35:58;98891.41;;;13.59;100.00
33781;BME280;20097;50.832;19.100;2023-05-20T23:41:04;98896.38;;;13.54;100.00
33781;BME280;20097;50.832;19.100;2023-05-20T23:46:08;98896.44;;;13.46;100.00
33781;BME280;20097;50.832;19.100;2023-05-20T23:51:12;98896.91;;;13.49;100.00
33781;BME280;20097;50.832;19.100;2023-05-20T23:56:19;98898.06;;;13.47;100.00
